Time,TemperatureF,DewpointF,PressureIn,WindDirection,WindDirectionDegrees,WindSpeedMPH,WindSpeedGustMPH,Humidity,HourlyPrecipIn,Conditions,Clouds,dailyrainin,SoftwareType,DateUTC
2013-05-30 00:01:00,59.5,57.5,30.23,SSW,202,0.0,0.0,93,0.00,,---,0.00,VWS V14.00,2013-05-30 04:01:00,
2013-05-30 00:03:00,59.5,57.5,30.23,SSW,202,0.0,0.0,93,0.00,,---,0.00,VWS V14.00,2013-05-30 04:03:00,
2013-05-30 00:08:00,59.3,57.3,30.22,SSW,202,0.0,0.0,93,0.00,,---,0.00,VWS V14.00,2013-05-30 04:08:00,
2013-05-30 00:13:00,59.1,57.4,30.23,SSW,202,0.0,0.0,94,0.00,,---,0.00,VWS V14.00,2013-05-30 04:13:00,
2013-05-30 00:18:00,59.0,57.3,30.23,SSW,202,0.0,0.0,94,0.00,,---,0.00,VWS V14.00,2013-05-30 04:18:00,
2013-05-30 00:23:00,58.8,57.1,30.22,SSW,202,0.0,0.0,94,0.00,,---,0.00,VWS V14.00,2013-05-30 04:23:00,
2013-05-30 00:28:00,58.8,57.1,30.22,SSW,202,0.0,0.0,94,0.00,,---,0.00,VWS V14.00,2013-05-30 04:28:00,
2013-05-30 00:33:00,58.8,57.4,30.22,SSW,202,0.0,0.0,95,0.00,,---,0.00,VWS V14.00,2013-05-30 04:33:00,
2013-05-30 00:38:00,58.8,57.4,30.22,SSW,202,0.0,0.0,95,0.00,,---,0.00,VWS V14.00,2013-05-30 04:38:00,
2013-05-30 00:43:00,58.8,57.4,30.22,SSW,202,0.0,0.0,95,0.00,,---,0.00,VWS V14.00,2013-05-30 04:43:00,
2013-05-30 00:48:00,58.6,57.2,30.22,SSW,202,0.0,0.0,95,0.00,,---,0.00,VWS V14.00,2013-05-30 04:48:00,
2013-05-30 00:53:00,58.6,57.2,30.22,SSW,202,0.0,0.0,95,0.00,,---,0.00,VWS V14.00,2013-05-30 04:53:00,
2013-05-30 00:58:00,58.4,57.0,30.21,SSW,202,0.0,0.0,95,0.00,,---,0.00,VWS V14.00,2013-05-30 04:58:00,
2013-05-30 01:03:00,58.2,56.8,30.21,SSW,202,0.0,0.0,95,0.00,,---,0.00,VWS V14.00,2013-05-30 05:03:00,
2013-05-30 01:08:00,58.2,57.1,30.21,SSW,202,0.0,0.0,96,0.00,,---,0.00,VWS V14.00,2013-05-30 05:08:00,
2013-05-30 01:13:00,58.1,57.0,30.21,SSW,202,0.0,0.0,96,0.00,,---,0.00,VWS V14.00,2013-05-30 05:13:00,
2013-05-30 01:18:00,58.1,57.0,30.21,SSW,202,0.0,0.0,96,0.00,,---,0.00,VWS V14.00,2013-05-30 05:18:00,
2013-05-30 01:23:00,57.9,56.8,30.22,SSW,202,0.0,0.0,96,0.00,,---,0.00,VWS V14.00,2013-05-30 05:23:00,
2013-05-30 01:28:00,57.9,56.8,30.22,SSW,202,0.0,0.0,96,0.00,,---,0.00,VWS V14.00,2013-05-30 05:28:00,
2013-05-30 01:33:00,57.7,56.6,30.22,SSW,202,0.0,0.0,96,0.00,,---,0.00,VWS V14.00,2013-05-30 05:33:00,
2013-05-30 01:39:00,57.7,56.6,30.22,SSW,202,0.0,0.0,96,0.00,,---,0.00,VWS V14.00,2013-05-30 05:39:00,
2013-05-30 01:43:00,57.7,56.6,30.22,SSW,202,0.0,0.0,96,0.00,,---,0.00,VWS V14.00,2013-05-30 05:43:00,
2013-05-30 01:48:00,57.5,56.4,30.21,SSW,202,0.0,0.0,96,0.00,,---,0.00,VWS V14.00,2013-05-30 05:48:00,
2013-05-30 01:54:00,57.3,56.5,30.21,SSW,202,0.0,0.0,97,0.00,,---,0.00,VWS V14.00,2013-05-30 05:54:00,
2013-05-30 01:59:00,57.3,56.5,30.21,SSW,202,0.0,0.0,97,0.00,,---,0.00,VWS V14.00,2013-05-30 05:59:00,
2013-05-30 02:04:00,57.3,56.5,30.21,SSW,202,0.0,0.0,97,0.00,,---,0.00,VWS V14.00,2013-05-30 06:04:00,
2013-05-30 02:09:00,57.2,56.4,30.20,SSW,202,0.0,0.0,97,0.00,,---,0.00,VWS V14.00,2013-05-30 06:09:00,
2013-05-30 02:14:00,57.0,56.2,30.20,SSW,202,0.0,0.0,97,0.00,,---,0.00,VWS V14.00,2013-05-30 06:14:00,
2013-05-30 02:19:00,57.0,56.2,30.20,SSW,202,0.0,0.0,97,0.00,,---,0.00,VWS V14.00,2013-05-30 06:19:00,
2013-05-30 02:24:00,57.0,56.2,30.20,SSW,202,0.0,0.0,97,0.00,,---,0.00,VWS V14.00,2013-05-30 06:24:00,
2013-05-30 02:29:00,56.8,56.0,30.20,SSW,202,0.0,0.0,97,0.00,,---,0.00,VWS V14.00,2013-05-30 06:29:00,
2013-05-30 02:34:00,56.8,56.0,30.20,SSW,202,0.0,0.0,97,0.00,,---,0.00,VWS V14.00,2013-05-30 06:34:00,
2013-05-30 02:39:00,56.8,56.0,30.20,SSW,202,0.0,0.0,97,0.00,,---,0.00,VWS V14.00,2013-05-30 06:39:00,
2013-05-30 02:44:00,56.6,56.0,30.20,SSW,202,0.0,0.0,98,0.00,,---,0.00,VWS V14.00,2013-05-30 06:44:00,
2013-05-30 02:49:00,56.4,55.8,30.20,SSW,202,0.0,0.0,98,0.00,,---,0.00,VWS V14.00,2013-05-30 06:49:00,
2013-05-30 02:54:00,56.4,55.8,30.20,SSW,202,0.0,0.0,98,0.00,,---,0.00,VWS V14.00,2013-05-30 06:54:00,
2013-05-30 02:59:00,56.4,55.8,30.19,SSW,202,0.0,0.0,98,0.00,,---,0.00,VWS V14.00,2013-05-30 06:59:00,
2013-05-30 03:04:00,56.4,55.8,30.20,SSW,202,0.0,0.0,98,0.00,,---,0.00,VWS V14.00,2013-05-30 07:04:00,
2013-05-30 03:09:00,56.3,55.8,30.20,SSW,202,0.0,0.0,98,0.00,,---,0.00,VWS V14.00,2013-05-30 07:09:00,
2013-05-30 03:14:00,56.3,55.8,30.19,SSW,202,0.0,0.0,98,0.00,,---,0.00,VWS V14.00,2013-05-30 07:14:00,
2013-05-30 03:19:00,56.3,55.8,30.20,SSW,202,0.0,0.0,98,0.00,,---,0.00,VWS V14.00,2013-05-30 07:19:00,
2013-05-30 03:24:00,56.1,55.5,30.20,SSW,202,0.0,0.0,98,0.00,,---,0.00,VWS V14.00,2013-05-30 07:24:00,
2013-05-30 03:29:00,56.1,55.5,30.20,SSW,202,0.0,0.0,98,0.00,,---,0.00,VWS V14.00,2013-05-30 07:29:00,
2013-05-30 03:34:00,56.1,55.5,30.21,SSW,202,0.0,0.0,98,0.00,,---,0.00,VWS V14.00,2013-05-30 07:34:00,
2013-05-30 03:39:00,55.9,55.6,30.21,SSW,202,0.0,0.0,99,0.00,,---,0.00,VWS V14.00,2013-05-30 07:39:00,
2013-05-30 03:44:00,55.9,55.6,30.21,SSW,202,0.0,0.0,99,0.00,,---,0.00,VWS V14.00,2013-05-30 07:44:00,
2013-05-30 03:49:00,55.9,55.6,30.21,SSW,202,0.0,0.0,99,0.00,,---,0.00,VWS V14.00,2013-05-30 07:49:00,
2013-05-30 03:54:00,55.9,55.6,30.21,SSW,202,0.0,0.0,99,0.00,,---,0.00,VWS V14.00,2013-05-30 07:54:00,
2013-05-30 03:59:00,55.9,55.6,30.21,SSW,202,0.0,0.0,99,0.00,,---,0.00,VWS V14.00,2013-05-30 07:59:00,
2013-05-30 04:04:00,56.1,55.8,30.21,SSW,202,0.0,0.0,99,0.00,,---,0.00,VWS V14.00,2013-05-30 08:04:00,
2013-05-30 04:09:00,56.1,55.8,30.21,SSW,202,0.0,0.0,99,0.00,,---,0.00,VWS V14.00,2013-05-30 08:09:00,
2013-05-30 04:14:00,56.1,55.8,30.21,SSW,202,0.0,0.0,99,0.00,,---,0.00,VWS V14.00,2013-05-30 08:14:00,
2013-05-30 04:19:00,56.1,55.8,30.21,SSW,202,0.0,0.0,99,0.00,,---,0.00,VWS V14.00,2013-05-30 08:19:00,
2013-05-30 04:24:00,56.1,55.8,30.21,SSW,202,0.0,0.0,99,0.00,,---,0.00,VWS V14.00,2013-05-30 08:24:00,
2013-05-30 04:29:00,56.1,55.8,30.22,SSW,202,0.0,0.0,99,0.00,,---,0.00,VWS V14.00,2013-05-30 08:29:00,
2013-05-30 04:34:00,55.9,55.9,30.22,SSW,202,0.0,0.0,100,0.00,,---,0.00,VWS V14.00,2013-05-30 08:34:00,
2013-05-30 04:39:00,55.9,55.6,30.22,SSW,202,0.0,0.0,99,0.00,,---,0.00,VWS V14.00,2013-05-30 08:39:00,
2013-05-30 04:44:00,55.7,55.4,30.22,SSW,202,0.0,0.0,99,0.00,,---,0.00,VWS V14.00,2013-05-30 08:44:00,
2013-05-30 04:49:00,55.7,55.4,30.22,SSW,202,0.0,0.0,99,0.00,,---,0.00,VWS V14.00,2013-05-30 08:49:00,
2013-05-30 04:54:00,55.5,55.2,30.23,SSW,202,0.0,0.0,99,0.00,,---,0.00,VWS V14.00,2013-05-30 08:54:00,
2013-05-30 04:59:00,55.5,55.2,30.23,SSW,202,0.0,0.0,99,0.00,,---,0.00,VWS V14.00,2013-05-30 08:59:00,
2013-05-30 05:04:00,55.5,55.2,30.23,SSW,202,0.0,0.0,99,0.00,,---,0.00,VWS V14.00,2013-05-30 09:04:00,
2013-05-30 05:09:00,55.2,54.9,30.23,SSW,202,0.0,0.0,99,0.00,,---,0.00,VWS V14.00,2013-05-30 09:09:00,
2013-05-30 05:14:00,55.2,55.2,30.23,SSW,202,0.0,0.0,100,0.00,,---,0.00,VWS V14.00,2013-05-30 09:14:00,
2013-05-30 05:19:00,55.2,55.2,30.23,SSW,202,0.0,0.0,100,0.00,,---,0.00,VWS V14.00,2013-05-30 09:19:00,
2013-05-30 05:24:00,55.2,55.2,30.23,SSW,202,0.0,0.0,100,0.00,,---,0.00,VWS V14.00,2013-05-30 09:24:00,
2013-05-30 05:29:00,55.2,55.2,30.23,SSW,202,0.0,0.0,100,0.00,,---,0.00,VWS V14.00,2013-05-30 09:29:00,
2013-05-30 05:34:00,55.0,55.0,30.24,SSW,202,0.0,0.0,100,0.00,,---,0.00,VWS V14.00,2013-05-30 09:34:00,
2013-05-30 05:39:00,55.0,55.0,30.24,SSW,202,0.0,0.0,100,0.00,,---,0.00,VWS V14.00,2013-05-30 09:39:00,
2013-05-30 05:44:00,54.8,54.8,30.24,SSW,202,0.0,0.0,100,0.00,,---,0.00,VWS V14.00,2013-05-30 09:44:00,
2013-05-30 05:49:00,54.8,54.8,30.24,SSW,202,0.0,0.0,100,0.00,,---,0.00,VWS V14.00,2013-05-30 09:49:00,
2013-05-30 05:54:00,54.8,54.8,30.24,SSW,202,0.0,0.0,100,0.00,,---,0.00,VWS V14.00,2013-05-30 09:54:00,
2013-05-30 05:59:00,54.8,54.8,30.24,SSW,202,0.0,0.0,100,0.00,,---,0.00,VWS V14.00,2013-05-30 09:59:00,
2013-05-30 06:04:00,54.8,54.8,30.25,SSW,202,0.0,0.0,100,0.00,,---,0.00,VWS V14.00,2013-05-30 10:04:00,
2013-05-30 06:09:00,55.0,55.0,30.25,SSW,202,0.0,0.0,100,0.00,,---,0.00,VWS V14.00,2013-05-30 10:09:00,
2013-05-30 06:14:00,55.2,55.2,30.25,SSW,202,0.0,0.0,100,0.00,,---,0.00,VWS V14.00,2013-05-30 10:14:00,
2013-05-30 06:20:00,55.2,55.2,30.25,SSW,202,0.0,0.0,100,0.00,,---,0.00,VWS V14.00,2013-05-30 10:20:00,
2013-05-30 06:25:00,55.2,55.2,30.25,SSW,202,0.0,0.0,100,0.00,,---,0.00,VWS V14.00,2013-05-30 10:25:00,
2013-05-30 06:30:00,55.2,55.2,30.25,SSW,202,0.0,0.0,100,0.00,,---,0.00,VWS V14.00,2013-05-30 10:30:00,
2013-05-30 06:35:00,55.2,55.2,30.25,SSW,202,0.0,0.0,100,0.00,,---,0.00,VWS V14.00,2013-05-30 10:35:00,
2013-05-30 06:40:00,55.2,55.2,30.25,SSW,202,0.0,0.0,100,0.00,,---,0.00,VWS V14.00,2013-05-30 10:40:00,
2013-05-30 06:45:00,55.4,55.4,30.25,SSW,202,0.0,0.0,100,0.00,,---,0.00,VWS V14.00,2013-05-30 10:45:00,
2013-05-30 06:50:00,55.4,55.4,30.25,SSW,202,0.0,0.0,100,0.00,,---,0.00,VWS V14.00,2013-05-30 10:50:00,
2013-05-30 06:55:00,55.5,55.5,30.25,SSW,202,0.0,0.0,100,0.00,,---,0.00,VWS V14.00,2013-05-30 10:55:00,
2013-05-30 07:00:00,55.7,55.7,30.25,SSW,202,0.0,0.0,100,0.00,,---,0.00,VWS V14.00,2013-05-30 11:00:00,
2013-05-30 07:05:00,55.7,55.7,30.25,SSW,202,0.0,0.0,100,0.00,,---,0.00,VWS V14.00,2013-05-30 11:05:00,
2013-05-30 07:10:00,55.9,55.9,30.26,SSW,202,0.0,0.0,100,0.00,,---,0.00,VWS V14.00,2013-05-30 11:10:00,
2013-05-30 07:15:00,56.3,56.3,30.25,SSW,202,0.0,0.0,100,0.00,,---,0.00,VWS V14.00,2013-05-30 11:15:00,
2013-05-30 07:20:00,56.4,56.4,30.26,SSW,202,0.0,0.0,100,0.00,,---,0.00,VWS V14.00,2013-05-30 11:20:00,
2013-05-30 07:25:00,57.0,57.0,30.26,SSW,202,0.0,0.0,100,0.00,,---,0.00,VWS V14.00,2013-05-30 11:25:00,
2013-05-30 07:30:00,57.3,57.3,30.26,SSW,202,0.0,0.0,100,0.00,,---,0.00,VWS V14.00,2013-05-30 11:30:00,
2013-05-30 07:35:00,57.9,57.9,30.26,SSW,202,0.0,0.0,100,0.00,,---,0.00,VWS V14.00,2013-05-30 11:35:00,
2013-05-30 07:40:00,58.1,58.1,30.26,SSW,202,0.0,0.0,100,0.00,,---,0.00,VWS V14.00,2013-05-30 11:40:00,
2013-05-30 07:45:00,58.8,58.8,30.26,SSW,202,0.0,0.0,100,0.00,,---,0.00,VWS V14.00,2013-05-30 11:45:00,
2013-05-30 07:50:00,59.1,59.1,30.26,SSW,202,0.0,0.0,100,0.00,,---,0.00,VWS V14.00,2013-05-30 11:50:00,
2013-05-30 07:55:00,59.5,59.5,30.26,SSW,202,0.0,0.0,100,0.00,,---,0.00,VWS V14.00,2013-05-30 11:55:00,
2013-05-30 08:00:00,60.4,60.4,30.26,SSW,202,0.0,0.0,100,0.00,,---,0.00,VWS V14.00,2013-05-30 12:00:00,
2013-05-30 08:05:00,60.9,60.9,30.26,SSW,202,0.0,0.0,100,0.00,,---,0.00,VWS V14.00,2013-05-30 12:05:00,
2013-05-30 08:10:00,61.5,61.5,30.26,SSW,202,0.0,0.0,100,0.00,,---,0.00,VWS V14.00,2013-05-30 12:10:00,
2013-05-30 08:15:00,62.4,62.4,30.26,SSW,202,0.0,0.0,100,0.00,,---,0.00,VWS V14.00,2013-05-30 12:15:00,
2013-05-30 08:20:00,63.1,63.1,30.26,SSW,202,0.0,0.0,100,0.00,,---,0.00,VWS V14.00,2013-05-30 12:20:00,
2013-05-30 08:25:00,63.8,63.5,30.26,NE,45,0.0,0.0,99,0.00,,---,0.00,VWS V14.00,2013-05-30 12:25:00,
2013-05-30 08:30:00,65.3,64.7,30.26,NE,45,0.0,0.0,98,0.00,,---,0.00,VWS V14.00,2013-05-30 12:30:00,
2013-05-30 08:35:00,66.7,66.1,30.26,NE,45,0.0,0.0,98,0.00,,---,0.00,VWS V14.00,2013-05-30 12:35:00,
2013-05-30 08:40:00,67.8,66.6,30.26,NE,45,0.0,0.0,96,0.00,,---,0.00,VWS V14.00,2013-05-30 12:40:00,
2013-05-30 08:45:00,68.7,66.6,30.26,NE,45,0.0,0.0,93,0.00,,---,0.00,VWS V14.00,2013-05-30 12:45:00,
2013-05-30 08:50:00,69.0,66.6,30.26,ENE,68,0.0,0.0,92,0.00,,---,0.00,VWS V14.00,2013-05-30 12:50:00,
2013-05-30 08:55:00,69.6,66.9,30.26,ENE,68,0.0,0.0,91,0.00,,---,0.00,VWS V14.00,2013-05-30 12:55:00,
2013-05-30 09:00:00,70.3,67.6,30.26,ENE,68,0.0,0.0,91,0.00,,---,0.00,VWS V14.00,2013-05-30 13:00:00,
2013-05-30 09:05:00,71.4,68.3,30.27,South,180,0.0,0.0,90,0.00,,---,0.00,VWS V14.00,2013-05-30 13:05:00,
2013-05-30 09:10:00,72.3,68.9,30.27,South,180,0.0,0.0,89,0.00,,---,0.00,VWS V14.00,2013-05-30 13:10:00,
2013-05-30 09:15:00,72.6,68.5,30.27,South,180,0.0,0.0,87,0.00,,---,0.00,VWS V14.00,2013-05-30 13:15:00,
2013-05-30 09:20:00,72.5,68.4,30.27,South,180,0.0,0.0,87,0.00,,---,0.00,VWS V14.00,2013-05-30 13:20:00,
2013-05-30 09:25:00,72.6,68.5,30.27,South,180,0.0,0.0,87,0.00,,---,0.00,VWS V14.00,2013-05-30 13:25:00,
2013-05-30 09:30:00,72.8,68.4,30.27,SW,225,0.0,0.0,86,0.00,,---,0.00,VWS V14.00,2013-05-30 13:30:00,
2013-05-30 09:35:00,73.0,68.6,30.28,SW,225,0.0,0.0,86,0.00,,---,0.00,VWS V14.00,2013-05-30 13:35:00,
2013-05-30 09:40:00,73.0,68.2,30.28,SW,225,0.0,0.0,85,0.00,,---,0.00,VWS V14.00,2013-05-30 13:40:00,
2013-05-30 09:45:00,73.0,68.2,30.28,SW,225,0.0,0.0,85,0.00,,---,0.00,VWS V14.00,2013-05-30 13:45:00,
2013-05-30 09:50:00,72.8,68.0,30.28,SW,225,0.0,0.0,85,0.00,,---,0.00,VWS V14.00,2013-05-30 13:50:00,
2013-05-30 09:55:00,73.2,68.4,30.28,SW,225,0.0,0.0,85,0.00,,---,0.00,VWS V14.00,2013-05-30 13:55:00,
2013-05-30 10:00:00,73.2,68.1,30.28,SW,225,0.0,0.0,84,0.00,,---,0.00,VWS V14.00,2013-05-30 14:00:00,
2013-05-30 10:05:00,73.5,68.4,30.28,SW,225,0.0,0.0,84,0.00,,---,0.00,VWS V14.00,2013-05-30 14:05:00,
2013-05-30 10:10:00,73.5,68.4,30.28,SW,225,0.0,0.0,84,0.00,,---,0.00,VWS V14.00,2013-05-30 14:10:00,
2013-05-30 10:15:00,74.4,69.3,30.28,NE,45,0.0,0.0,84,0.00,,---,0.00,VWS V14.00,2013-05-30 14:15:00,
2013-05-30 10:20:00,75.5,70.0,30.27,SW,225,0.0,0.0,83,0.00,,---,0.00,VWS V14.00,2013-05-30 14:20:00,
2013-05-30 10:25:00,76.1,69.8,30.28,SW,225,0.0,0.0,81,0.00,,---,0.00,VWS V14.00,2013-05-30 14:25:00,
2013-05-30 10:31:00,75.9,69.7,30.28,SW,225,0.0,0.0,81,0.00,,---,0.00,VWS V14.00,2013-05-30 14:31:00,
2013-05-30 10:36:00,75.7,69.5,30.28,SW,225,0.0,0.0,81,0.00,,---,0.00,VWS V14.00,2013-05-30 14:36:00,
2013-05-30 10:41:00,75.7,69.5,30.27,WNW,292,0.0,0.0,81,0.00,,---,0.00,VWS V14.00,2013-05-30 14:41:00,
2013-05-30 10:46:00,75.5,68.5,30.27,ENE,68,0.0,2.9,79,0.00,,---,0.00,VWS V14.00,2013-05-30 14:46:00,
2013-05-30 10:51:00,75.5,68.9,30.26,East,90,0.0,0.0,80,0.00,,---,0.00,VWS V14.00,2013-05-30 14:51:00,
2013-05-30 10:56:00,76.1,68.8,30.26,ENE,68,0.0,0.0,78,0.00,,---,0.00,VWS V14.00,2013-05-30 14:56:00,
2013-05-30 11:01:00,76.6,69.2,30.26,SSE,158,0.0,0.0,78,0.00,,---,0.00,VWS V14.00,2013-05-30 15:01:00,
2013-05-30 11:06:00,76.8,69.4,30.26,WSW,248,1.1,1.1,78,0.00,,---,0.00,VWS V14.00,2013-05-30 15:06:00,
2013-05-30 11:11:00,77.1,70.1,30.26,South,180,0.0,0.0,79,0.00,,---,0.00,VWS V14.00,2013-05-30 15:11:00,
2013-05-30 11:16:00,77.1,69.3,30.26,NE,45,0.0,1.3,77,0.00,,---,0.00,VWS V14.00,2013-05-30 15:16:00,
2013-05-30 11:21:00,76.8,69.4,30.26,NE,45,0.0,0.0,78,0.00,,---,0.00,VWS V14.00,2013-05-30 15:21:00,
2013-05-30 11:26:00,76.8,69.4,30.26,NE,45,0.0,0.0,78,0.00,,---,0.00,VWS V14.00,2013-05-30 15:26:00,
2013-05-30 11:31:00,77.1,69.7,30.26,NE,45,0.0,0.0,78,0.00,,---,0.00,VWS V14.00,2013-05-30 15:31:00,
2013-05-30 11:36:00,77.5,70.1,30.26,SE,135,0.0,0.0,78,0.00,,---,0.00,VWS V14.00,2013-05-30 15:36:00,
2013-05-30 11:41:00,77.9,69.7,30.26,WSW,248,0.0,0.0,76,0.00,,---,0.00,VWS V14.00,2013-05-30 15:41:00,
2013-05-30 11:46:00,77.7,69.5,30.26,WSW,248,0.0,0.0,76,0.00,,---,0.00,VWS V14.00,2013-05-30 15:46:00,
2013-05-30 11:51:00,78.6,70.4,30.26,SSE,158,0.0,0.0,76,0.00,,---,0.00,VWS V14.00,2013-05-30 15:51:00,
2013-05-30 11:56:00,79.3,70.3,30.26,NE,45,0.0,0.0,74,0.00,,---,0.00,VWS V14.00,2013-05-30 15:56:00,
2013-05-30 12:01:00,80.4,71.4,30.26,SW,225,0.0,0.0,74,0.00,,---,0.00,VWS V14.00,2013-05-30 16:01:00,
2013-05-30 12:06:00,81.5,71.6,30.26,NE,45,3.3,3.3,72,0.00,,---,0.00,VWS V14.00,2013-05-30 16:06:00,
2013-05-30 12:11:00,81.6,71.3,30.26,NE,45,0.0,0.0,71,0.00,,---,0.00,VWS V14.00,2013-05-30 16:11:00,
2013-05-30 12:16:00,81.8,71.5,30.26,SSE,158,3.5,3.5,71,0.00,,---,0.00,VWS V14.00,2013-05-30 16:16:00,
2013-05-30 12:21:00,82.7,72.3,30.25,ESE,112,3.8,3.8,71,0.00,,---,0.00,VWS V14.00,2013-05-30 16:21:00,
2013-05-30 12:26:00,82.9,71.7,30.25,WSW,248,1.3,5.5,69,0.00,,---,0.00,VWS V14.00,2013-05-30 16:26:00,
2013-05-30 12:31:00,82.5,71.3,30.25,ESE,112,0.0,0.0,69,0.00,,---,0.00,VWS V14.00,2013-05-30 16:31:00,
2013-05-30 12:36:00,82.2,71.0,30.25,SW,225,1.5,4.4,69,0.00,,---,0.00,VWS V14.00,2013-05-30 16:36:00,
2013-05-30 12:41:00,81.8,70.2,30.25,SW,225,6.2,6.2,68,0.00,,---,0.00,VWS V14.00,2013-05-30 16:41:00,
2013-05-30 12:46:00,81.3,70.2,30.25,SW,225,2.6,6.2,69,0.00,,---,0.00,VWS V14.00,2013-05-30 16:46:00,
2013-05-30 12:51:00,81.6,70.9,30.24,SE,135,0.0,0.0,70,0.00,,---,0.00,VWS V14.00,2013-05-30 16:51:00,
2013-05-30 12:56:00,81.6,70.4,30.24,SW,225,2.6,2.6,69,0.00,,---,0.00,VWS V14.00,2013-05-30 16:56:00,
2013-05-30 13:01:00,81.5,69.9,30.24,North,0,0.0,0.0,68,0.00,,---,0.00,VWS V14.00,2013-05-30 17:01:00,
2013-05-30 13:06:00,81.6,70.0,30.24,WSW,248,0.0,0.6,68,0.00,,---,0.00,VWS V14.00,2013-05-30 17:06:00,
2013-05-30 13:11:00,82.0,70.8,30.24,ESE,112,1.5,1.5,69,0.00,,---,0.00,VWS V14.00,2013-05-30 17:11:00,
2013-05-30 13:16:00,81.3,69.7,30.24,SW,225,1.3,3.3,68,0.00,,---,0.00,VWS V14.00,2013-05-30 17:16:00,
2013-05-30 13:21:00,81.3,70.2,30.24,WSW,248,0.0,0.0,69,0.00,,---,0.00,VWS V14.00,2013-05-30 17:21:00,
2013-05-30 13:26:00,82.0,70.4,30.24,East,90,3.5,3.5,68,0.00,,---,0.00,VWS V14.00,2013-05-30 17:26:00,
2013-05-30 13:31:00,81.6,69.6,30.24,NE,45,1.7,1.7,67,0.00,,---,0.00,VWS V14.00,2013-05-30 17:31:00,
2013-05-30 13:36:00,81.3,69.3,30.23,SE,135,1.1,1.7,67,0.00,,---,0.00,VWS V14.00,2013-05-30 17:36:00,
2013-05-30 13:41:00,81.3,69.3,30.23,NE,45,0.0,0.0,67,0.00,,---,0.00,VWS V14.00,2013-05-30 17:41:00,
2013-05-30 13:46:00,81.5,69.5,30.23,SSE,158,0.0,0.4,67,0.00,,---,0.00,VWS V14.00,2013-05-30 17:46:00,
2013-05-30 13:52:00,81.3,69.7,30.23,ESE,112,0.8,0.8,68,0.00,,---,0.00,VWS V14.00,2013-05-30 17:52:00,
2013-05-30 13:57:00,81.5,69.9,30.22,SSW,202,4.4,4.4,68,0.00,,---,0.00,VWS V14.00,2013-05-30 17:57:00,
2013-05-30 14:02:00,82.9,70.8,30.22,NE,45,3.5,3.5,67,0.00,,---,0.00,VWS V14.00,2013-05-30 18:02:00,
2013-05-30 14:07:00,83.1,70.6,30.22,SE,135,0.0,3.5,66,0.00,,---,0.00,VWS V14.00,2013-05-30 18:07:00,
2013-05-30 14:12:00,83.4,71.3,30.22,SW,225,3.1,3.1,67,0.00,,---,0.00,VWS V14.00,2013-05-30 18:12:00,
2013-05-30 14:17:00,84.3,70.8,30.22,WNW,292,0.0,3.1,64,0.00,,---,0.00,VWS V14.00,2013-05-30 18:17:00,
2013-05-30 14:22:00,84.0,70.1,30.22,West,270,1.7,1.7,63,0.00,,---,0.00,VWS V14.00,2013-05-30 18:22:00,
2013-05-30 14:27:00,84.0,71.0,30.22,East,90,3.5,3.5,65,0.00,,---,0.00,VWS V14.00,2013-05-30 18:27:00,
2013-05-30 14:32:00,82.9,69.5,30.22,WSW,248,5.5,5.5,64,0.00,,---,0.00,VWS V14.00,2013-05-30 18:32:00,
2013-05-30 14:37:00,82.5,69.6,30.22,NE,45,4.2,5.5,65,0.00,,---,0.00,VWS V14.00,2013-05-30 18:37:00,
2013-05-30 14:42:00,82.2,68.8,30.22,West,270,0.0,0.0,64,0.00,,---,0.00,VWS V14.00,2013-05-30 18:42:00,
2013-05-30 14:47:00,82.0,68.6,30.22,SE,135,2.9,2.9,64,0.00,,---,0.00,VWS V14.00,2013-05-30 18:47:00,
2013-05-30 14:52:00,82.0,69.5,30.21,SE,135,0.6,0.6,66,0.00,,---,0.00,VWS V14.00,2013-05-30 18:52:00,
2013-05-30 14:57:00,82.2,69.7,30.21,SW,225,3.3,3.3,66,0.00,,---,0.00,VWS V14.00,2013-05-30 18:57:00,
2013-05-30 15:02:00,82.0,69.1,30.21,WSW,248,0.0,2.4,65,0.00,,---,0.00,VWS V14.00,2013-05-30 19:02:00,
2013-05-30 15:07:00,81.5,68.6,30.21,WSW,248,1.7,6.7,65,0.00,,---,0.00,VWS V14.00,2013-05-30 19:07:00,
2013-05-30 15:12:00,81.3,68.0,30.21,SW,225,0.0,0.0,64,0.00,,---,0.00,VWS V14.00,2013-05-30 19:12:00,
2013-05-30 15:17:00,80.9,67.6,30.21,WSW,248,0.0,1.3,64,0.00,,---,0.00,VWS V14.00,2013-05-30 19:17:00,
2013-05-30 15:22:00,80.7,67.8,30.21,West,270,3.3,3.3,65,0.00,,---,0.00,VWS V14.00,2013-05-30 19:22:00,
2013-05-30 15:27:00,80.6,67.8,30.21,ESE,112,2.0,3.3,65,0.00,,---,0.00,VWS V14.00,2013-05-30 19:27:00,
2013-05-30 15:32:00,80.6,68.2,30.20,WSW,248,4.9,4.9,66,0.00,,---,0.00,VWS V14.00,2013-05-30 19:32:00,
2013-05-30 15:37:00,80.7,68.3,30.20,ENE,68,0.0,4.9,66,0.00,,---,0.00,VWS V14.00,2013-05-30 19:37:00,
2013-05-30 15:42:00,80.4,67.6,30.20,ENE,68,3.3,6.2,65,0.00,,---,0.00,VWS V14.00,2013-05-30 19:42:00,
2013-05-30 15:47:00,80.4,68.0,30.21,East,90,5.5,6.2,66,0.00,,---,0.00,VWS V14.00,2013-05-30 19:47:00,
2013-05-30 15:52:00,80.2,68.3,30.20,SSW,202,1.7,1.7,67,0.00,,---,0.00,VWS V14.00,2013-05-30 19:52:00,
2013-05-30 15:57:00,80.4,68.4,30.20,SSE,158,0.0,1.7,67,0.00,,---,0.00,VWS V14.00,2013-05-30 19:57:00,
2013-05-30 16:02:00,80.2,67.8,30.20,South,180,0.0,0.0,66,0.00,,---,0.00,VWS V14.00,2013-05-30 20:02:00,
2013-05-30 16:07:00,79.8,67.0,30.19,SSE,158,0.0,0.0,65,0.00,,---,0.00,VWS V14.00,2013-05-30 20:07:00,
2013-05-30 16:12:00,79.5,67.2,30.19,SW,225,0.0,0.0,66,0.00,,---,0.00,VWS V14.00,2013-05-30 20:12:00,
2013-05-30 16:17:00,79.5,67.6,30.19,SW,225,4.2,4.2,67,0.00,,---,0.00,VWS V14.00,2013-05-30 20:17:00,
2013-05-30 16:22:00,79.3,67.4,30.20,WSW,248,2.9,2.9,67,0.00,,---,0.00,VWS V14.00,2013-05-30 20:22:00,
2013-05-30 16:27:00,79.1,66.8,30.20,SE,135,1.1,2.9,66,0.00,,---,0.00,VWS V14.00,2013-05-30 20:27:00,
2013-05-30 16:32:00,78.6,66.3,30.20,ENE,68,0.0,0.0,66,0.00,,---,0.00,VWS V14.00,2013-05-30 20:32:00,
2013-05-30 16:37:00,78.6,66.7,30.19,South,180,3.3,3.3,67,0.00,,---,0.00,VWS V14.00,2013-05-30 20:37:00,
2013-05-30 16:42:00,78.6,66.3,30.20,ENE,68,0.0,0.4,66,0.00,,---,0.00,VWS V14.00,2013-05-30 20:42:00,
2013-05-30 16:47:00,78.4,66.6,30.20,ESE,112,0.0,0.6,67,0.00,,---,0.00,VWS V14.00,2013-05-30 20:47:00,
2013-05-30 16:52:00,78.0,66.2,30.20,WSW,248,0.0,0.0,67,0.00,,---,0.00,VWS V14.00,2013-05-30 20:52:00,
2013-05-30 16:57:00,78.0,66.2,30.19,South,180,0.0,0.0,67,0.00,,---,0.00,VWS V14.00,2013-05-30 20:57:00,
2013-05-30 17:02:00,78.0,66.2,30.19,SE,135,4.0,4.0,67,0.00,,---,0.00,VWS V14.00,2013-05-30 21:02:00,
2013-05-30 17:07:00,77.9,66.5,30.19,North,0,1.5,4.0,68,0.00,,---,0.00,VWS V14.00,2013-05-30 21:07:00,
2013-05-30 17:12:00,77.9,66.5,30.20,WSW,248,3.1,3.1,68,0.00,,---,0.00,VWS V14.00,2013-05-30 21:12:00,
2013-05-30 17:17:00,77.7,66.3,30.19,South,180,0.0,3.1,68,0.00,,---,0.00,VWS V14.00,2013-05-30 21:17:00,
2013-05-30 17:22:00,77.9,66.9,30.19,ESE,112,0.0,0.0,69,0.00,,---,0.00,VWS V14.00,2013-05-30 21:22:00,
2013-05-30 17:27:00,77.7,66.7,30.19,SW,225,0.6,0.6,69,0.00,,---,0.00,VWS V14.00,2013-05-30 21:27:00,
2013-05-30 17:32:00,77.9,66.9,30.19,SE,135,0.0,1.3,69,0.00,,---,0.00,VWS V14.00,2013-05-30 21:32:00,
2013-05-30 17:37:00,77.9,66.9,30.19,East,90,0.0,1.3,69,0.00,,---,0.00,VWS V14.00,2013-05-30 21:37:00,
2013-05-30 17:42:00,77.7,65.9,30.19,ESE,112,2.4,2.4,67,0.00,,---,0.00,VWS V14.00,2013-05-30 21:42:00,
2013-05-30 17:47:00,77.7,66.3,30.18,SSE,158,0.0,2.4,68,0.00,,---,0.00,VWS V14.00,2013-05-30 21:47:00,
2013-05-30 17:52:00,77.3,66.3,30.18,SW,225,0.0,0.0,69,0.00,,---,0.00,VWS V14.00,2013-05-30 21:52:00,
2013-05-30 17:57:00,77.1,66.2,30.18,SSW,202,0.0,1.3,69,0.00,,---,0.00,VWS V14.00,2013-05-30 21:57:00,
2013-05-30 18:02:00,76.8,65.9,30.19,NE,45,2.6,2.6,69,0.00,,---,0.00,VWS V14.00,2013-05-30 22:02:00,
2013-05-30 18:07:00,76.8,65.9,30.19,NNW,338,0.0,2.6,69,0.00,,---,0.00,VWS V14.00,2013-05-30 22:07:00,
2013-05-30 18:12:00,76.8,65.9,30.19,ESE,112,0.0,0.0,69,0.00,,---,0.00,VWS V14.00,2013-05-30 22:12:00,
2013-05-30 18:17:00,76.8,65.9,30.19,NNW,338,0.0,0.0,69,0.00,,---,0.00,VWS V14.00,2013-05-30 22:17:00,
2013-05-30 18:22:00,76.6,65.7,30.19,WSW,248,0.0,0.0,69,0.00,,---,0.00,VWS V14.00,2013-05-30 22:22:00,
2013-05-30 18:27:00,76.2,65.7,30.19,East,90,0.0,0.0,70,0.00,,---,0.00,VWS V14.00,2013-05-30 22:27:00,
2013-05-30 18:32:00,75.9,65.4,30.18,SE,135,0.0,0.0,70,0.00,,---,0.00,VWS V14.00,2013-05-30 22:32:00,
2013-05-30 18:37:00,75.5,65.0,30.18,East,90,0.0,0.0,70,0.00,,---,0.00,VWS V14.00,2013-05-30 22:37:00,
2013-05-30 18:42:00,75.3,65.3,30.18,South,180,0.0,0.0,71,0.00,,---,0.00,VWS V14.00,2013-05-30 22:42:00,
2013-05-30 18:47:00,75.3,65.3,30.18,SW,225,0.0,0.0,71,0.00,,---,0.00,VWS V14.00,2013-05-30 22:47:00,
2013-05-30 18:52:00,75.0,65.0,30.19,East,90,0.0,0.0,71,0.00,,---,0.00,VWS V14.00,2013-05-30 22:52:00,
2013-05-30 18:57:00,75.0,65.0,30.19,SW,225,0.0,0.0,71,0.00,,---,0.00,VWS V14.00,2013-05-30 22:57:00,
2013-05-30 19:02:00,75.0,65.4,30.19,NE,45,0.0,0.0,72,0.00,,---,0.00,VWS V14.00,2013-05-30 23:02:00,
2013-05-30 19:07:00,74.8,65.2,30.19,NW,315,0.0,0.0,72,0.00,,---,0.00,VWS V14.00,2013-05-30 23:07:00,
2013-05-30 19:12:00,74.8,65.2,30.19,ENE,68,0.0,0.0,72,0.00,,---,0.00,VWS V14.00,2013-05-30 23:12:00,
2013-05-30 19:17:00,74.8,65.2,30.19,South,180,0.0,0.0,72,0.00,,---,0.00,VWS V14.00,2013-05-30 23:17:00,
2013-05-30 19:22:00,74.8,65.6,30.19,SSE,158,0.0,0.0,73,0.00,,---,0.00,VWS V14.00,2013-05-30 23:22:00,
2013-05-30 19:27:00,74.4,65.2,30.19,SW,225,2.2,2.2,73,0.00,,---,0.00,VWS V14.00,2013-05-30 23:27:00,
2013-05-30 19:32:00,74.3,65.1,30.19,WSW,248,0.0,0.0,73,0.00,,---,0.00,VWS V14.00,2013-05-30 23:32:00,
2013-05-30 19:37:00,74.1,65.3,30.19,ESE,112,0.0,0.0,74,0.00,,---,0.00,VWS V14.00,2013-05-30 23:37:00,
2013-05-30 19:42:00,74.1,65.3,30.19,SW,225,0.0,0.0,74,0.00,,---,0.00,VWS V14.00,2013-05-30 23:42:00,
2013-05-30 19:47:00,73.9,65.1,30.19,SE,135,0.0,0.0,74,0.00,,---,0.00,VWS V14.00,2013-05-30 23:47:00,
2013-05-30 19:52:00,73.7,64.9,30.19,East,90,0.0,0.0,74,0.00,,---,0.00,VWS V14.00,2013-05-30 23:52:00,
2013-05-30 19:58:00,73.4,65.0,30.19,SSE,158,0.0,1.7,75,0.00,,---,0.00,VWS V14.00,2013-05-30 23:58:00,
2013-05-30 20:03:00,73.2,64.8,30.19,SSE,158,0.0,0.0,75,0.00,,---,0.00,VWS V14.00,2013-05-31 00:03:00,
2013-05-30 20:08:00,73.0,64.6,30.20,SE,135,0.0,1.7,75,0.00,,---,0.00,VWS V14.00,2013-05-31 00:08:00,
2013-05-30 20:13:00,72.6,64.6,30.19,SE,135,0.0,0.0,76,0.00,,---,0.00,VWS V14.00,2013-05-31 00:13:00,
2013-05-30 20:18:00,72.3,64.3,30.19,SE,135,0.0,0.0,76,0.00,,---,0.00,VWS V14.00,2013-05-31 00:18:00,
2013-05-30 20:23:00,71.7,64.1,30.19,SE,135,0.0,0.0,77,0.00,,---,0.00,VWS V14.00,2013-05-31 00:23:00,
2013-05-30 20:28:00,71.2,63.6,30.19,SSE,158,0.0,0.0,77,0.00,,---,0.00,VWS V14.00,2013-05-31 00:28:00,
2013-05-30 20:33:00,70.8,63.6,30.19,SSE,158,0.0,0.0,78,0.00,,---,0.00,VWS V14.00,2013-05-31 00:33:00,
2013-05-30 20:38:00,69.9,63.1,30.19,SSE,158,0.0,0.0,79,0.00,,---,0.00,VWS V14.00,2013-05-31 00:38:00,
2013-05-30 20:43:00,69.6,63.2,30.19,SSE,158,0.0,0.0,80,0.00,,---,0.00,VWS V14.00,2013-05-31 00:43:00,
2013-05-30 20:48:00,69.0,62.6,30.19,SSE,158,0.0,0.0,80,0.00,,---,0.00,VWS V14.00,2013-05-31 00:48:00,
2013-05-30 20:53:00,68.5,62.5,30.19,SSE,158,0.0,0.0,81,0.00,,---,0.00,VWS V14.00,2013-05-31 00:53:00,
2013-05-30 20:58:00,68.1,62.4,30.20,SSE,158,0.0,0.0,82,0.00,,---,0.00,VWS V14.00,2013-05-31 00:58:00,
2013-05-30 21:03:00,67.8,62.1,30.20,SSE,158,0.0,0.0,82,0.00,,---,0.00,VWS V14.00,2013-05-31 01:03:00,
2013-05-30 21:08:00,67.2,61.9,30.20,SSE,158,0.0,0.0,83,0.00,,---,0.00,VWS V14.00,2013-05-31 01:08:00,
2013-05-30 21:13:00,67.1,61.8,30.20,SSE,158,0.0,0.0,83,0.00,,---,0.00,VWS V14.00,2013-05-31 01:13:00,
2013-05-30 21:18:00,66.7,61.7,30.20,SSE,158,0.0,0.0,84,0.00,,---,0.00,VWS V14.00,2013-05-31 01:18:00,
2013-05-30 21:23:00,66.5,61.5,30.20,SSE,158,0.0,0.0,84,0.00,,---,0.00,VWS V14.00,2013-05-31 01:23:00,
2013-05-30 21:28:00,66.3,61.3,30.21,SSE,158,0.0,0.0,84,0.00,,---,0.00,VWS V14.00,2013-05-31 01:28:00,
2013-05-30 21:33:00,66.0,61.4,30.21,SSE,158,0.0,0.0,85,0.00,,---,0.00,VWS V14.00,2013-05-31 01:33:00,
2013-05-30 21:38:00,65.8,61.2,30.20,SSE,158,0.0,0.0,85,0.00,,---,0.00,VWS V14.00,2013-05-31 01:38:00,
2013-05-30 21:43:00,65.4,61.1,30.20,SSE,158,0.0,0.0,86,0.00,,---,0.00,VWS V14.00,2013-05-31 01:43:00,
2013-05-30 21:48:00,65.3,61.0,30.20,SSE,158,0.0,0.0,86,0.00,,---,0.00,VWS V14.00,2013-05-31 01:48:00,
2013-05-30 21:53:00,65.1,61.1,30.20,SSE,158,0.0,0.0,87,0.00,,---,0.00,VWS V14.00,2013-05-31 01:53:00,
2013-05-30 21:58:00,64.9,60.9,30.21,SSE,158,0.0,0.0,87,0.00,,---,0.00,VWS V14.00,2013-05-31 01:58:00,
2013-05-30 22:03:00,64.5,60.5,30.21,SSE,158,0.0,0.0,87,0.00,,---,0.00,VWS V14.00,2013-05-31 02:03:00,
2013-05-30 22:08:00,64.2,60.3,30.21,SSE,158,0.0,0.0,87,0.00,,---,0.00,VWS V14.00,2013-05-31 02:08:00,
2013-05-30 22:13:00,64.2,60.6,30.21,SSE,158,0.0,0.0,88,0.00,,---,0.00,VWS V14.00,2013-05-31 02:13:00,
2013-05-30 22:18:00,64.0,60.4,30.21,SSE,158,0.0,0.0,88,0.00,,---,0.00,VWS V14.00,2013-05-31 02:18:00,
2013-05-30 22:23:00,63.6,60.3,30.21,SSE,158,0.0,0.0,89,0.00,,---,0.00,VWS V14.00,2013-05-31 02:23:00,
2013-05-30 22:28:00,63.5,60.2,30.21,SSE,158,0.0,0.0,89,0.00,,---,0.00,VWS V14.00,2013-05-31 02:28:00,
2013-05-30 22:33:00,63.3,60.0,30.21,SSE,158,0.0,0.0,89,0.00,,---,0.00,VWS V14.00,2013-05-31 02:33:00,
2013-05-30 22:38:00,63.1,59.8,30.22,SSE,158,0.0,0.0,89,0.00,,---,0.00,VWS V14.00,2013-05-31 02:38:00,
2013-05-30 22:43:00,63.1,60.1,30.22,SSE,158,0.0,0.0,90,0.00,,---,0.00,VWS V14.00,2013-05-31 02:43:00,
2013-05-30 22:48:00,62.9,59.9,30.21,SSE,158,0.0,0.0,90,0.00,,---,0.00,VWS V14.00,2013-05-31 02:48:00,
2013-05-30 22:53:00,62.7,59.7,30.21,SSE,158,0.0,0.0,90,0.00,,---,0.00,VWS V14.00,2013-05-31 02:53:00,
2013-05-30 22:58:00,62.7,59.7,30.22,SSE,158,0.0,0.0,90,0.00,,---,0.00,VWS V14.00,2013-05-31 02:58:00,
2013-05-30 23:03:00,62.6,59.9,30.21,SSE,158,0.0,0.0,91,0.00,,---,0.00,VWS V14.00,2013-05-31 03:03:00,
2013-05-30 23:08:00,62.4,59.7,30.21,SSE,158,0.0,0.0,91,0.00,,---,0.00,VWS V14.00,2013-05-31 03:08:00,
2013-05-30 23:13:00,62.4,59.7,30.21,SSE,158,0.0,0.0,91,0.00,,---,0.00,VWS V14.00,2013-05-31 03:13:00,
2013-05-30 23:18:00,62.4,60.0,30.21,SSE,158,0.0,0.0,92,0.00,,---,0.00,VWS V14.00,2013-05-31 03:18:00,
2013-05-30 23:23:00,62.2,59.8,30.21,SSE,158,0.0,0.0,92,0.00,,---,0.00,VWS V14.00,2013-05-31 03:23:00,
2013-05-30 23:28:00,62.2,59.8,30.22,SSE,158,0.0,0.0,92,0.00,,---,0.00,VWS V14.00,2013-05-31 03:28:00,
2013-05-30 23:33:00,61.8,59.5,30.21,SSE,158,0.0,0.0,92,0.00,,---,0.00,VWS V14.00,2013-05-31 03:33:00,
2013-05-30 23:38:00,61.8,59.5,30.21,SSE,158,0.0,0.0,92,0.00,,---,0.00,VWS V14.00,2013-05-31 03:38:00,
2013-05-30 23:43:00,61.7,59.7,30.21,SSE,158,0.0,0.0,93,0.00,,---,0.00,VWS V14.00,2013-05-31 03:43:00,
2013-05-30 23:48:00,61.5,59.5,30.21,SSE,158,0.0,0.0,93,0.00,,---,0.00,VWS V14.00,2013-05-31 03:48:00,
2013-05-30 23:53:00,61.5,59.5,30.22,SSE,158,0.0,0.0,93,0.00,,---,0.00,VWS V14.00,2013-05-31 03:53:00,
2013-05-30 23:59:00,61.5,59.8,30.22,SSE,158,0.0,0.0,94,0.00,,---,0.00,VWS V14.00,2013-05-31 03:59:00,